createdAt,value
2019-02-19T00:01:02.615Z,90.40
2019-02-19T00:02:09.369Z,90.60
2019-02-19T00:03:13.551Z,90.60
2019-02-19T00:04:17.853Z,90.20
2019-02-19T00:05:22.021Z,89.50
2019-02-19T00:06:26.413Z,90.10
2019-02-19T00:07:30.629Z,90.10
2019-02-19T00:08:35.198Z,90.20
2019-02-19T00:09:39.381Z,90.90
2019-02-19T00:10:44.002Z,91.40
2019-02-19T00:11:48.271Z,90.70
2019-02-19T00:12:52.561Z,90.40
2019-02-19T00:13:56.695Z,90.20
2019-02-19T00:15:07.953Z,90.40
2019-02-19T00:16:06.931Z,90.70
2019-02-19T00:17:11.161Z,90.80
2019-02-19T00:18:15.470Z,90.90
2019-02-19T00:19:20.018Z,91.00
2019-02-19T00:20:24.175Z,90.40
2019-02-19T00:21:28.495Z,89.80
2019-02-19T00:22:32.719Z,89.30
2019-02-19T00:23:36.877Z,89.80
2019-02-19T00:24:41.105Z,89.40
2019-02-19T00:25:45.445Z,90.00
2019-02-19T00:26:49.727Z,89.70
2019-02-19T00:27:53.996Z,89.70
2019-02-19T00:28:58.631Z,90.00
2019-02-19T00:30:02.979Z,90.00
2019-02-19T00:31:07.259Z,90.10
2019-02-19T00:32:11.517Z,90.20
2019-02-19T00:33:15.679Z,90.40
2019-02-19T00:34:19.784Z,90.30
2019-02-19T00:35:24.030Z,89.90
2019-02-19T00:36:28.257Z,90.00
2019-02-19T00:37:32.527Z,90.00
2019-02-19T00:38:36.690Z,90.30
2019-02-19T00:39:40.969Z,90.90
2019-02-19T00:40:45.147Z,90.50
2019-02-19T00:41:49.332Z,90.80
2019-02-19T00:42:53.489Z,91.50
2019-02-19T00:43:57.683Z,92.00
2019-02-19T00:45:01.989Z,91.60
2019-02-19T00:46:06.157Z,90.30
2019-02-19T00:47:10.481Z,89.20
2019-02-19T00:48:14.665Z,89.80
2019-02-19T00:49:18.966Z,89.10
2019-02-19T00:50:23.211Z,90.00
2019-02-19T00:51:27.581Z,89.80
2019-02-19T00:52:31.989Z,90.20
2019-02-19T00:53:36.332Z,90.80
2019-02-19T00:54:40.507Z,90.50
2019-02-19T00:55:44.802Z,91.50
2019-02-19T00:56:49.108Z,91.50
2019-02-19T00:57:53.257Z,91.70
2019-02-19T00:58:57.475Z,91.30
2019-02-19T01:00:01.816Z,91.40
2019-02-19T01:01:05.991Z,91.60
2019-02-19T01:02:10.262Z,91.10
2019-02-19T01:03:14.419Z,91.20
2019-02-19T01:04:18.712Z,90.80
2019-02-19T01:05:22.961Z,90.80
2019-02-19T01:06:27.229Z,91.50
2019-02-19T01:07:31.544Z,91.50
2019-02-19T01:08:35.819Z,91.20
2019-02-19T01:09:40.117Z,90.20
2019-02-19T01:10:44.455Z,90.60
2019-02-19T01:11:48.835Z,89.50
2019-02-19T01:12:53.173Z,91.00
2019-02-19T01:13:57.389Z,91.60
2019-02-19T01:15:01.674Z,91.40
2019-02-19T01:16:05.991Z,90.70
2019-02-19T01:17:10.228Z,90.90
2019-02-19T01:18:14.449Z,91.30
2019-02-19T01:19:18.703Z,91.20
2019-02-19T01:20:23.304Z,91.20
2019-02-19T01:21:27.609Z,90.90
2019-02-19T01:22:31.823Z,90.40
2019-02-19T01:23:35.939Z,90.00
2019-02-19T01:24:40.265Z,90.10
2019-02-19T01:25:44.488Z,90.00
2019-02-19T01:26:48.653Z,90.10
2019-02-19T01:27:52.968Z,90.30
2019-02-19T01:28:58.371Z,90.70
2019-02-19T01:30:02.811Z,90.80
2019-02-19T01:31:06.991Z,90.80
2019-02-19T01:32:11.118Z,91.20
2019-02-19T01:33:15.351Z,90.80
2019-02-19T01:34:19.564Z,91.10
2019-02-19T01:35:23.803Z,90.80
2019-02-19T01:36:28.115Z,90.30
2019-02-19T01:37:32.455Z,90.30
2019-02-19T01:38:36.693Z,90.50
2019-02-19T01:39:40.993Z,91.40
2019-02-19T01:40:45.249Z,91.60
2019-02-19T01:41:49.548Z,91.20
2019-02-19T01:42:53.679Z,91.00
2019-02-19T01:43:58.029Z,91.20
2019-02-19T01:45:02.281Z,92.00
2019-02-19T01:46:06.597Z,91.90
2019-02-19T01:47:10.809Z,91.70
2019-02-19T01:48:14.918Z,91.80
2019-02-19T01:49:19.214Z,91.50
2019-02-19T01:50:23.394Z,91.50
2019-02-19T01:51:27.607Z,91.10
2019-02-19T01:52:31.895Z,91.40
2019-02-19T01:53:36.437Z,91.50
2019-02-19T01:54:40.711Z,91.10
2019-02-19T01:55:44.863Z,90.90
2019-02-19T01:56:49.117Z,90.70
2019-02-19T01:57:53.381Z,90.30
2019-02-19T01:58:57.556Z,90.10
2019-02-19T02:00:01.860Z,90.30
2019-02-19T02:01:05.985Z,90.00
2019-02-19T02:02:10.153Z,90.10
2019-02-19T02:03:14.423Z,90.20
2019-02-19T02:04:18.645Z,90.90
2019-02-19T02:05:22.817Z,90.90
2019-02-19T02:06:27.099Z,90.40
2019-02-19T02:07:31.314Z,91.30
2019-02-19T02:08:35.523Z,91.50
2019-02-19T02:09:39.747Z,90.30
2019-02-19T02:10:44.015Z,90.40
2019-02-19T02:11:48.295Z,89.50
2019-02-19T02:12:52.555Z,90.50
2019-02-19T02:13:56.831Z,89.60
2019-02-19T02:15:01.147Z,90.10
2019-02-19T02:16:05.441Z,91.00
2019-02-19T02:17:09.765Z,91.30
2019-02-19T02:18:14.066Z,91.40
2019-02-19T02:19:18.359Z,90.90
2019-02-19T02:20:22.660Z,91.00
2019-02-19T02:21:26.945Z,91.00
2019-02-19T02:22:31.121Z,90.30
2019-02-19T02:23:35.395Z,90.00
2019-02-19T02:24:39.717Z,90.20
2019-02-19T02:25:43.918Z,90.90
2019-02-19T02:26:48.095Z,91.10
2019-02-19T02:27:52.391Z,91.30
2019-02-19T02:28:56.541Z,91.80
2019-02-19T02:30:00.779Z,91.60
2019-02-19T02:31:05.055Z,91.50
2019-02-19T02:32:09.319Z,91.90
2019-02-19T02:33:13.950Z,92.40
2019-02-19T02:34:18.188Z,91.80
2019-02-19T02:35:22.527Z,91.40
2019-02-19T02:36:26.755Z,91.40
2019-02-19T02:37:31.023Z,90.70
2019-02-19T02:38:35.290Z,91.30
2019-02-19T02:39:39.558Z,90.90
2019-02-19T02:40:43.727Z,91.30
2019-02-19T02:41:48.021Z,91.20
2019-02-19T02:42:52.201Z,90.40
2019-02-19T02:43:56.552Z,90.90
2019-02-19T02:45:00.750Z,90.50
2019-02-19T02:46:04.959Z,90.60
2019-02-19T02:47:09.230Z,90.50
2019-02-19T02:48:13.412Z,91.00
2019-02-19T02:49:17.800Z,91.40
2019-02-19T02:50:21.965Z,91.40
2019-02-19T02:51:26.304Z,91.20
2019-02-19T02:52:30.585Z,90.30
2019-02-19T02:53:34.841Z,90.20
2019-02-19T02:54:39.065Z,90.20
2019-02-19T02:55:43.191Z,90.80
2019-02-19T02:56:47.395Z,90.90
2019-02-19T02:57:51.537Z,91.40
2019-02-19T02:58:55.819Z,91.30
2019-02-19T02:59:59.997Z,91.20
2019-02-19T03:01:04.234Z,91.40
2019-02-19T03:02:08.513Z,91.40
2019-02-19T03:03:12.681Z,91.40
2019-02-19T03:04:16.879Z,91.40
2019-02-19T03:05:21.051Z,91.30
2019-02-19T03:06:34.939Z,91.00
2019-02-19T03:07:42.271Z,91.20
2019-02-19T03:08:46.467Z,91.40
2019-02-19T03:09:50.636Z,91.40
2019-02-19T03:10:54.986Z,91.40
2019-02-19T03:11:59.112Z,91.70
2019-02-19T03:13:03.403Z,90.90
2019-02-19T03:14:07.561Z,90.50
2019-02-19T03:15:12.168Z,90.90
2019-02-19T03:16:16.459Z,91.10
2019-02-19T03:17:20.673Z,91.10
2019-02-19T03:18:24.866Z,91.40
2019-02-19T03:19:29.031Z,91.70
2019-02-19T03:20:33.179Z,91.40
2019-02-19T03:21:37.728Z,91.40
2019-02-19T03:22:41.955Z,91.20
2019-02-19T03:23:46.233Z,91.10
2019-02-19T03:24:50.397Z,91.30
2019-02-19T03:25:54.556Z,91.60
2019-02-19T03:26:58.711Z,91.40
2019-02-19T03:28:02.975Z,91.60
2019-02-19T03:29:07.224Z,91.80
2019-02-19T03:30:11.951Z,92.00
2019-02-19T03:31:16.093Z,92.00
2019-02-19T03:32:20.336Z,92.10
2019-02-19T03:33:24.801Z,91.70
2019-02-19T03:34:29.071Z,91.60
2019-02-19T03:35:33.356Z,92.50
2019-02-19T03:36:37.505Z,92.00
2019-02-19T03:37:41.699Z,91.50
2019-02-19T03:38:46.039Z,91.40
2019-02-19T03:39:50.187Z,91.70
2019-02-19T03:40:54.577Z,91.20
2019-02-19T03:41:58.840Z,90.90
2019-02-19T03:43:03.322Z,90.90
2019-02-19T03:44:07.631Z,91.40
2019-02-19T03:45:11.959Z,91.10
2019-02-19T03:46:16.310Z,90.90
2019-02-19T03:47:20.588Z,91.10
2019-02-19T03:48:24.792Z,90.40
2019-02-19T03:49:29.109Z,90.30
2019-02-19T03:50:33.443Z,91.00
2019-02-19T03:51:37.744Z,90.90
2019-02-19T03:52:41.941Z,91.20
2019-02-19T03:53:46.104Z,91.10
2019-02-19T03:54:50.373Z,91.40
2019-02-19T03:55:54.618Z,91.10
2019-02-19T03:56:58.741Z,90.90
2019-02-19T03:58:03.088Z,91.20
2019-02-19T03:59:07.341Z,91.40
2019-02-19T04:00:11.517Z,91.70
2019-02-19T04:01:15.725Z,91.60
2019-02-19T04:02:19.962Z,91.80
2019-02-19T04:03:24.176Z,91.80
2019-02-19T04:04:28.345Z,91.60
2019-02-19T04:05:32.708Z,91.90
2019-02-19T04:06:37.054Z,91.90
2019-02-19T04:07:41.204Z,91.30
2019-02-19T04:08:45.503Z,91.00
2019-02-19T04:09:49.756Z,90.80
2019-02-19T04:10:53.940Z,91.00
2019-02-19T04:11:58.253Z,91.00
2019-02-19T04:13:02.557Z,91.00
2019-02-19T04:14:06.885Z,91.00
2019-02-19T04:15:11.165Z,91.30
2019-02-19T04:16:21.363Z,91.30
2019-02-19T04:17:21.383Z,91.10
2019-02-19T04:18:25.621Z,91.50
2019-02-19T04:19:29.778Z,91.30
2019-02-19T04:20:34.106Z,90.90
2019-02-19T04:21:38.363Z,90.90
2019-02-19T04:22:42.682Z,90.80
2019-02-19T04:23:47.021Z,91.10
2019-02-19T04:24:51.270Z,90.70
2019-02-19T04:25:55.454Z,91.10
2019-02-19T04:26:59.670Z,91.30
2019-02-19T04:28:06.587Z,91.10
2019-02-19T04:29:10.903Z,90.40
2019-02-19T04:30:15.080Z,90.00
2019-02-19T04:31:19.303Z,90.30
2019-02-19T04:32:23.494Z,90.50
2019-02-19T04:33:27.841Z,90.50
2019-02-19T04:34:32.189Z,90.60
2019-02-19T04:35:36.403Z,90.80
2019-02-19T04:36:40.659Z,90.90
2019-02-19T04:37:44.825Z,91.30
2019-02-19T04:38:49.089Z,90.70
2019-02-19T04:39:53.299Z,90.80
2019-02-19T04:40:57.573Z,90.80
2019-02-19T04:42:01.798Z,90.30
2019-02-19T04:43:06.056Z,90.30
2019-02-19T04:44:10.227Z,90.10
2019-02-19T04:45:14.585Z,90.30
2019-02-19T04:46:18.759Z,91.30
2019-02-19T04:47:23.067Z,90.70
2019-02-19T04:48:27.284Z,90.60
2019-02-19T04:49:31.489Z,90.20
2019-02-19T04:50:35.676Z,89.50
2019-02-19T04:51:39.809Z,88.40
2019-02-19T04:52:44.167Z,88.80
2019-02-19T04:53:48.443Z,89.20
2019-02-19T04:54:52.659Z,89.90
2019-02-19T04:55:56.956Z,89.30
2019-02-19T04:57:01.380Z,89.20
2019-02-19T04:58:05.607Z,89.40
2019-02-19T04:59:09.860Z,90.00
2019-02-19T05:00:14.262Z,88.50
2019-02-19T05:01:18.376Z,90.10
2019-02-19T05:02:22.644Z,89.80
2019-02-19T05:03:26.844Z,90.00
2019-02-19T05:04:31.005Z,90.20
2019-02-19T05:05:35.327Z,90.50
2019-02-19T05:06:39.542Z,90.80
2019-02-19T05:07:43.690Z,91.00
2019-02-19T05:08:48.022Z,90.80
2019-02-19T05:09:52.381Z,90.90
2019-02-19T05:10:56.573Z,89.10
2019-02-19T05:12:00.732Z,89.50
2019-02-19T05:13:04.966Z,90.40
2019-02-19T05:14:09.260Z,90.50
2019-02-19T05:15:13.545Z,90.40
2019-02-19T05:16:17.737Z,90.50
2019-02-19T05:17:22.004Z,90.20
2019-02-19T05:18:26.323Z,90.00
2019-02-19T05:19:30.481Z,89.40
2019-02-19T05:20:34.750Z,89.50
2019-02-19T05:21:38.974Z,89.20
2019-02-19T05:22:43.165Z,88.80
2019-02-19T05:23:47.503Z,88.70
2019-02-19T05:24:51.681Z,89.40
2019-02-19T05:25:55.973Z,90.00
2019-02-19T05:27:00.225Z,90.10
2019-02-19T05:28:04.411Z,90.20
2019-02-19T05:29:08.589Z,90.50
2019-02-19T05:30:12.886Z,90.50
2019-02-19T05:31:17.129Z,91.10
2019-02-19T05:32:21.402Z,90.10
2019-02-19T05:33:25.611Z,88.80
2019-02-19T05:34:29.726Z,88.40
2019-02-19T05:35:33.906Z,87.60
2019-02-19T05:36:38.243Z,88.10
2019-02-19T05:37:42.509Z,87.50
2019-02-19T05:38:46.733Z,88.40
2019-02-19T05:39:51.032Z,88.90
2019-02-19T05:40:55.304Z,88.80
2019-02-19T05:41:59.519Z,89.00
2019-02-19T05:43:03.818Z,88.20
2019-02-19T05:44:08.199Z,89.20
2019-02-19T05:45:12.774Z,88.40
2019-02-19T05:46:17.076Z,87.80
2019-02-19T05:47:21.601Z,88.40
2019-02-19T05:48:25.897Z,87.40
2019-02-19T05:49:30.429Z,87.60
2019-02-19T05:50:34.770Z,87.70
2019-02-19T05:51:39.020Z,88.80
2019-02-19T05:52:43.327Z,88.30
2019-02-19T05:53:47.643Z,87.60
2019-02-19T05:54:51.925Z,88.50
2019-02-19T05:55:56.127Z,89.50
2019-02-19T05:57:00.461Z,88.70
2019-02-19T05:58:04.665Z,88.20
2019-02-19T05:59:09.037Z,88.20
2019-02-19T06:00:14.129Z,88.10
2019-02-19T06:01:18.694Z,86.80
2019-02-19T06:02:23.021Z,86.30
2019-02-19T06:03:27.191Z,86.40
2019-02-19T06:04:31.475Z,86.70
2019-02-19T06:05:35.815Z,87.00
2019-02-19T06:06:39.997Z,86.00
2019-02-19T06:07:44.641Z,85.90
2019-02-19T06:08:48.844Z,85.90
2019-02-19T06:09:53.022Z,85.90
2019-02-19T06:10:57.233Z,86.80
2019-02-19T06:12:01.419Z,87.70
2019-02-19T06:13:05.717Z,86.80
2019-02-19T06:14:09.886Z,86.70
2019-02-19T06:15:14.298Z,87.00
2019-02-19T06:16:18.659Z,87.50
2019-02-19T06:17:22.855Z,87.50
2019-02-19T06:18:27.063Z,87.60
2019-02-19T06:19:31.330Z,87.80
2019-02-19T06:20:35.503Z,86.70
2019-02-19T06:21:39.801Z,85.90
2019-02-19T06:22:43.974Z,85.10
2019-02-19T06:23:48.293Z,85.70
2019-02-19T06:24:52.529Z,86.10
2019-02-19T06:25:56.729Z,86.60
2019-02-19T06:27:01.045Z,87.20
2019-02-19T06:28:05.315Z,87.20
2019-02-19T06:29:09.627Z,87.10
2019-02-19T06:30:14.455Z,86.30
2019-02-19T06:31:18.615Z,85.30
2019-02-19T06:32:22.901Z,85.80
2019-02-19T06:33:27.077Z,85.50
2019-02-19T06:34:31.694Z,85.70
2019-02-19T06:35:35.898Z,85.50
2019-02-19T06:36:40.156Z,84.00
2019-02-19T06:37:44.274Z,86.40
2019-02-19T06:38:48.493Z,86.00
2019-02-19T06:39:52.807Z,86.10
2019-02-19T06:40:57.077Z,85.40
2019-02-19T06:42:01.298Z,85.00
2019-02-19T06:43:05.452Z,85.80
2019-02-19T06:44:09.618Z,86.50
2019-02-19T06:45:13.777Z,86.10
2019-02-19T06:46:18.109Z,86.80
2019-02-19T06:47:22.434Z,87.90
2019-02-19T06:48:26.617Z,88.00
2019-02-19T06:49:30.777Z,87.80
2019-02-19T06:50:35.033Z,86.90
2019-02-19T06:51:39.329Z,87.80
2019-02-19T06:52:43.629Z,86.70
2019-02-19T06:53:47.831Z,86.80
2019-02-19T06:54:52.077Z,87.40
2019-02-19T06:55:56.235Z,88.40
2019-02-19T06:57:00.491Z,89.00
2019-02-19T06:58:04.820Z,88.50
2019-02-19T06:59:09.201Z,87.90
2019-02-19T07:00:13.555Z,87.50
2019-02-19T07:01:20.727Z,88.60
2019-02-19T07:02:49.969Z,88.30
2019-02-19T07:04:00.935Z,87.70
2019-02-19T07:05:08.459Z,88.20
2019-02-19T07:06:12.692Z,88.00
2019-02-19T07:07:16.812Z,88.80
2019-02-19T07:08:21.117Z,89.20
2019-02-19T07:09:25.284Z,89.40
2019-02-19T07:10:29.543Z,90.10
2019-02-19T07:11:33.857Z,90.20
2019-02-19T07:12:38.125Z,90.20
2019-02-19T07:13:42.376Z,90.80
2019-02-19T07:14:46.621Z,90.90
2019-02-19T07:15:50.875Z,90.70
2019-02-19T07:16:55.061Z,90.50
2019-02-19T07:17:59.204Z,90.90
2019-02-19T07:19:03.493Z,91.10
2019-02-19T07:20:07.927Z,91.10
2019-02-19T07:21:12.101Z,91.20
2019-02-19T07:22:16.395Z,91.40
2019-02-19T07:23:20.663Z,91.70
2019-02-19T07:24:24.879Z,92.00
2019-02-19T07:25:29.059Z,91.90
2019-02-19T07:26:33.239Z,92.10
2019-02-19T07:27:37.423Z,92.10
2019-02-19T07:28:41.533Z,91.90
2019-02-19T07:29:45.745Z,92.40
2019-02-19T07:30:49.852Z,92.50
2019-02-19T07:31:54.137Z,92.60
2019-02-19T07:32:58.260Z,92.70
2019-02-19T07:34:02.436Z,93.00
2019-02-19T07:35:06.868Z,93.10
2019-02-19T07:36:11.454Z,93.40
2019-02-19T07:37:15.810Z,93.60
2019-02-19T07:38:19.986Z,93.70
2019-02-19T07:39:24.309Z,93.90
2019-02-19T07:40:28.659Z,94.20
2019-02-19T07:41:32.813Z,94.80
2019-02-19T07:42:37.099Z,94.80
2019-02-19T07:43:41.407Z,94.20
2019-02-19T07:44:45.589Z,94.10
2019-02-19T07:45:49.867Z,93.80
2019-02-19T07:46:54.163Z,93.90
2019-02-19T07:48:01.391Z,94.10
2019-02-19T07:49:05.685Z,94.40
2019-02-19T07:50:10.252Z,93.90
2019-02-19T07:51:14.562Z,94.00
2019-02-19T07:52:18.817Z,94.20
2019-02-19T07:53:23.042Z,94.10
2019-02-19T07:54:27.335Z,94.20
2019-02-19T07:55:32.972Z,94.60
2019-02-19T07:56:37.481Z,94.80
2019-02-19T07:57:42.919Z,94.60
2019-02-19T07:58:47.453Z,94.40
2019-02-19T07:59:51.609Z,94.70
2019-02-19T08:00:55.892Z,95.00
2019-02-19T08:02:00.137Z,94.70
2019-02-19T08:03:05.027Z,94.70
2019-02-19T08:04:09.577Z,95.00
2019-02-19T08:05:13.696Z,95.20
2019-02-19T08:06:17.954Z,95.70
2019-02-19T08:07:22.234Z,95.50
2019-02-19T08:08:26.495Z,95.40
2019-02-19T08:09:30.747Z,95.80
2019-02-19T08:10:35.363Z,96.10
2019-02-19T08:11:39.745Z,96.30
2019-02-19T08:12:44.011Z,96.20
2019-02-19T08:13:48.265Z,96.20
2019-02-19T08:14:52.469Z,96.30
2019-02-19T08:15:56.659Z,96.60
2019-02-19T08:17:00.930Z,96.70
2019-02-19T08:18:05.234Z,96.80
2019-02-19T08:19:09.417Z,96.80
2019-02-19T08:20:16.189Z,96.90
2019-02-19T08:21:19.577Z,97.20
2019-02-19T08:22:23.837Z,96.90
2019-02-19T08:23:29.849Z,97.80
2019-02-19T08:24:34.060Z,97.70
2019-02-19T08:25:38.225Z,97.60
2019-02-19T08:26:42.369Z,97.80
2019-02-19T08:27:46.665Z,98.00
2019-02-19T08:28:50.911Z,98.40
2019-02-19T08:29:55.074Z,97.90
2019-02-19T08:30:59.395Z,98.00
2019-02-19T08:32:03.592Z,98.20
2019-02-19T08:33:07.884Z,98.00
2019-02-19T08:34:12.165Z,97.90
2019-02-19T08:35:16.379Z,98.20
2019-02-19T08:36:20.635Z,98.10
2019-02-19T08:37:24.891Z,98.00
2019-02-19T08:38:29.041Z,98.20
2019-02-19T08:39:33.294Z,97.90
2019-02-19T08:40:37.664Z,97.80
2019-02-19T08:41:41.963Z,98.20
2019-02-19T08:42:46.191Z,98.40
2019-02-19T08:43:50.326Z,98.50
2019-02-19T08:44:54.673Z,99.00
2019-02-19T08:45:58.825Z,99.10
2019-02-19T08:47:03.122Z,99.10
2019-02-19T08:48:07.313Z,99.00
2019-02-19T08:49:11.557Z,99.20
2019-02-19T08:50:15.757Z,99.70
2019-02-19T08:51:19.901Z,99.70
2019-02-19T08:52:24.171Z,99.70
2019-02-19T08:53:28.691Z,99.80
2019-02-19T08:54:32.873Z,98.90
2019-02-19T08:55:37.108Z,99.80
2019-02-19T08:56:41.407Z,99.90
2019-02-19T08:57:45.609Z,99.90
2019-02-19T08:58:49.908Z,99.70
2019-02-19T08:59:54.203Z,98.90
2019-02-19T09:00:58.361Z,98.60
2019-02-19T09:02:02.661Z,98.50
2019-02-19T09:03:06.805Z,98.70
2019-02-19T09:04:11.117Z,98.10
2019-02-19T09:05:15.359Z,98.20
2019-02-19T09:06:19.548Z,98.40
2019-02-19T09:07:23.879Z,98.50
2019-02-19T09:08:28.153Z,98.50
2019-02-19T09:09:32.394Z,97.60
2019-02-19T09:10:36.668Z,97.10
2019-02-19T09:11:40.933Z,97.70
2019-02-19T09:12:45.146Z,97.30
2019-02-19T09:13:49.726Z,97.00
2019-02-19T09:14:54.055Z,97.00
2019-02-19T09:15:58.380Z,97.10
2019-02-19T09:17:02.657Z,97.10
2019-02-19T09:18:06.888Z,96.80
2019-02-19T09:19:11.094Z,97.40
2019-02-19T09:20:15.292Z,97.70
2019-02-19T09:21:19.481Z,97.80
2019-02-19T09:22:23.653Z,97.80
2019-02-19T09:23:27.996Z,97.50
2019-02-19T09:24:32.198Z,97.50
2019-02-19T09:25:36.353Z,96.70
2019-02-19T09:26:40.671Z,96.60
2019-02-19T09:27:44.954Z,96.70
2019-02-19T09:28:49.185Z,97.00
2019-02-19T09:29:53.391Z,97.10
2019-02-19T09:30:57.577Z,97.90
2019-02-19T09:32:01.743Z,98.10
2019-02-19T09:33:05.925Z,96.60
2019-02-19T09:34:10.245Z,96.90
2019-02-19T09:35:14.599Z,96.90
2019-02-19T09:36:18.822Z,96.50
2019-02-19T09:37:23.005Z,96.30
2019-02-19T09:38:27.274Z,95.60
2019-02-19T09:39:31.623Z,95.90
2019-02-19T09:40:35.893Z,95.80
2019-02-19T09:41:40.171Z,95.60
2019-02-19T09:42:44.400Z,95.20
2019-02-19T09:43:48.673Z,95.00
2019-02-19T09:44:53.000Z,94.70
2019-02-19T09:45:59.018Z,95.10
2019-02-19T09:47:03.503Z,95.00
2019-02-19T09:48:07.667Z,95.30
2019-02-19T09:49:11.957Z,95.60
2019-02-19T09:50:16.163Z,96.10
2019-02-19T09:51:20.286Z,95.10
2019-02-19T09:52:24.574Z,95.00
2019-02-19T09:53:28.746Z,94.80
2019-02-19T09:54:32.894Z,95.10
2019-02-19T09:55:37.228Z,95.00
2019-02-19T09:56:41.461Z,95.00
2019-02-19T09:57:45.732Z,95.00
2019-02-19T09:58:50.413Z,94.90
2019-02-19T09:59:54.632Z,94.80
2019-02-19T10:00:58.938Z,94.70
2019-02-19T10:02:03.224Z,94.50
2019-02-19T10:03:07.422Z,94.30
2019-02-19T10:04:11.565Z,94.10
2019-02-19T10:05:15.823Z,93.90
2019-02-19T10:06:20.108Z,94.00
2019-02-19T10:07:24.353Z,94.10
2019-02-19T10:08:28.532Z,94.10
2019-02-19T10:09:32.816Z,93.30
2019-02-19T10:10:37.007Z,93.30
2019-02-19T10:11:41.243Z,92.90
2019-02-19T10:12:45.480Z,93.10
2019-02-19T10:13:49.739Z,93.80
2019-02-19T10:14:54.012Z,94.20
2019-02-19T10:15:58.405Z,93.80
2019-02-19T10:17:02.776Z,93.80
2019-02-19T10:18:10.348Z,93.80
2019-02-19T10:19:12.994Z,93.70
2019-02-19T10:20:17.202Z,93.60
2019-02-19T10:21:21.498Z,93.80
2019-02-19T10:22:25.809Z,94.20
2019-02-19T10:23:30.050Z,93.40
2019-02-19T10:24:34.173Z,93.20
2019-02-19T10:25:38.344Z,92.50
2019-02-19T10:26:42.500Z,93.10
2019-02-19T10:27:46.815Z,93.70
2019-02-19T10:28:50.931Z,94.20
2019-02-19T10:29:55.267Z,93.80
2019-02-19T10:30:59.422Z,93.90
2019-02-19T10:32:03.715Z,93.30
2019-02-19T10:33:08.107Z,93.60
2019-02-19T10:34:12.353Z,93.80
2019-02-19T10:35:16.667Z,93.90
2019-02-19T10:36:20.927Z,93.30
2019-02-19T10:37:25.262Z,92.90
2019-02-19T10:38:29.489Z,93.20
2019-02-19T10:39:33.773Z,92.70
2019-02-19T10:40:38.167Z,92.80
2019-02-19T10:41:42.545Z,92.20
2019-02-19T10:42:46.696Z,92.00
2019-02-19T10:43:51.004Z,92.70
2019-02-19T10:44:55.327Z,92.70
2019-02-19T10:45:59.493Z,92.50
2019-02-19T10:47:03.782Z,91.90
2019-02-19T10:48:08.047Z,92.50
2019-02-19T10:49:12.624Z,91.10
2019-02-19T10:50:17.000Z,90.50
2019-02-19T10:51:21.189Z,91.00
2019-02-19T10:52:25.433Z,91.60
2019-02-19T10:53:29.730Z,91.80
2019-02-19T10:54:33.877Z,90.50
2019-02-19T10:55:38.203Z,90.00
2019-02-19T10:56:42.814Z,89.00
2019-02-19T10:57:46.997Z,90.00
2019-02-19T10:58:51.241Z,90.70
2019-02-19T10:59:55.535Z,91.30
2019-02-19T11:00:59.813Z,92.00
2019-02-19T11:02:03.982Z,92.90
2019-02-19T11:03:08.271Z,93.70
2019-02-19T11:04:12.483Z,93.30
2019-02-19T11:05:16.681Z,93.80
2019-02-19T11:06:20.965Z,92.00
2019-02-19T11:07:25.249Z,91.90
2019-02-19T11:08:29.402Z,92.10
2019-02-19T11:09:33.648Z,92.10
2019-02-19T11:10:38.002Z,92.10
2019-02-19T11:11:42.360Z,93.00
2019-02-19T11:12:46.627Z,93.40
2019-02-19T11:13:50.845Z,92.70
2019-02-19T11:14:55.103Z,93.40
2019-02-19T11:15:59.386Z,93.30
2019-02-19T11:17:03.739Z,93.60
2019-02-19T11:18:07.923Z,93.30
2019-02-19T11:19:12.217Z,92.90
2019-02-19T11:20:16.552Z,92.90
2019-02-19T11:21:20.773Z,92.50
2019-02-19T11:22:26.014Z,92.50
2019-02-19T11:23:30.373Z,92.00
2019-02-19T11:24:34.707Z,90.90
2019-02-19T11:25:39.029Z,90.20
2019-02-19T11:26:43.219Z,90.00
2019-02-19T11:27:47.387Z,89.90
2019-02-19T11:28:51.671Z,89.90
2019-02-19T11:29:55.863Z,90.30
2019-02-19T11:31:00.022Z,90.40
2019-02-19T11:32:04.740Z,90.40
2019-02-19T11:33:09.004Z,88.80
2019-02-19T11:34:13.283Z,87.20
2019-02-19T11:35:17.419Z,88.10
2019-02-19T11:36:21.643Z,88.00
2019-02-19T11:37:25.973Z,89.00
2019-02-19T11:38:30.183Z,90.40
2019-02-19T11:39:34.549Z,90.30
2019-02-19T11:40:38.731Z,90.30
2019-02-19T11:41:43.201Z,90.00
2019-02-19T11:42:47.474Z,90.30
2019-02-19T11:43:51.742Z,90.40
2019-02-19T11:44:55.913Z,90.50
2019-02-19T11:46:00.203Z,91.00
2019-02-19T11:47:04.395Z,91.20
2019-02-19T11:48:08.603Z,91.70
2019-02-19T11:49:12.859Z,91.70
2019-02-19T11:50:17.134Z,90.90
2019-02-19T11:51:21.759Z,91.10
2019-02-19T11:52:25.974Z,90.70
2019-02-19T11:53:30.661Z,90.80
2019-02-19T11:54:34.999Z,90.60
2019-02-19T11:55:39.307Z,90.50
2019-02-19T11:56:44.504Z,90.20
2019-02-19T11:57:48.906Z,90.40
2019-02-19T11:58:53.103Z,90.80
2019-02-19T11:59:57.291Z,90.50
2019-02-19T12:01:01.474Z,90.10
2019-02-19T12:02:09.891Z,90.30
2019-02-19T12:03:14.134Z,90.60
2019-02-19T12:04:18.309Z,91.60
2019-02-19T12:05:22.603Z,91.10
2019-02-19T12:06:27.163Z,91.10
2019-02-19T12:07:31.372Z,91.70
2019-02-19T12:08:39.110Z,91.00
2019-02-19T12:09:41.575Z,91.20
2019-02-19T12:10:45.903Z,91.80
2019-02-19T12:11:50.061Z,92.10
2019-02-19T12:12:54.363Z,92.70
2019-02-19T12:13:58.733Z,92.10
2019-02-19T12:15:02.875Z,92.10
2019-02-19T12:16:07.092Z,92.50
2019-02-19T12:17:11.298Z,91.70
2019-02-19T12:18:15.495Z,92.20
2019-02-19T12:19:19.749Z,92.00
2019-02-19T12:20:24.049Z,92.40
2019-02-19T12:21:28.237Z,92.00
2019-02-19T12:22:32.465Z,92.00
2019-02-19T12:23:36.643Z,92.50
2019-02-19T12:24:40.993Z,92.60
2019-02-19T12:25:45.243Z,92.20
2019-02-19T12:26:49.509Z,92.30
2019-02-19T12:27:53.837Z,92.40
2019-02-19T12:28:58.008Z,92.10
2019-02-19T12:30:02.248Z,91.80
2019-02-19T12:31:06.544Z,91.60
2019-02-19T12:32:10.726Z,91.50
2019-02-19T12:33:15.004Z,92.00
2019-02-19T12:34:19.308Z,92.20
2019-02-19T12:35:23.902Z,92.10
2019-02-19T12:36:28.195Z,92.50
2019-02-19T12:37:32.515Z,91.40
2019-02-19T12:38:36.835Z,90.80
2019-02-19T12:39:41.016Z,90.80
2019-02-19T12:40:45.333Z,90.50
2019-02-19T12:41:49.513Z,90.00
2019-02-19T12:42:53.671Z,90.00
2019-02-19T12:43:57.909Z,90.50
2019-02-19T12:45:02.186Z,90.20
2019-02-19T12:46:06.344Z,90.20
2019-02-19T12:47:10.614Z,90.50
2019-02-19T12:48:18.635Z,90.80
2019-02-19T12:49:22.940Z,91.10
2019-02-19T12:50:27.089Z,91.00
2019-02-19T12:51:31.383Z,90.80
2019-02-19T12:52:35.586Z,91.20
2019-02-19T12:53:40.098Z,91.50
2019-02-19T12:54:44.286Z,92.20
2019-02-19T12:55:48.544Z,92.60
2019-02-19T12:56:52.826Z,93.30
2019-02-19T12:57:57.139Z,93.10
2019-02-19T12:59:01.352Z,93.60
2019-02-19T13:00:07.009Z,93.70
2019-02-19T13:01:11.363Z,93.90
2019-02-19T13:02:15.890Z,94.10
2019-02-19T13:03:20.035Z,94.40
2019-02-19T13:04:24.231Z,94.90
2019-02-19T13:05:28.524Z,94.70
2019-02-19T13:06:32.714Z,94.60
2019-02-19T13:07:36.999Z,93.50
2019-02-19T13:08:41.179Z,94.60
2019-02-19T13:09:45.409Z,94.40
2019-02-19T13:10:49.569Z,94.20
2019-02-19T13:11:53.889Z,94.10
2019-02-19T13:12:58.182Z,93.20
2019-02-19T13:14:02.372Z,93.50
2019-02-19T13:15:08.643Z,93.60
2019-02-19T13:16:12.853Z,94.00
2019-02-19T13:17:17.039Z,94.60
2019-02-19T13:18:21.286Z,94.50
2019-02-19T13:19:25.475Z,94.50
2019-02-19T13:20:29.844Z,94.30
2019-02-19T13:21:34.016Z,92.50
2019-02-19T13:22:38.211Z,93.40
2019-02-19T13:23:42.418Z,93.40
2019-02-19T13:24:46.723Z,93.50
2019-02-19T13:25:51.027Z,92.90
2019-02-19T13:26:55.341Z,92.90
2019-02-19T13:27:59.680Z,93.20
2019-02-19T13:29:03.873Z,93.50
2019-02-19T13:30:11.015Z,92.60
2019-02-19T13:31:15.235Z,92.90
2019-02-19T13:32:19.525Z,92.70
2019-02-19T13:33:23.810Z,93.00
2019-02-19T13:34:28.135Z,93.30
2019-02-19T13:35:32.439Z,93.90
2019-02-19T13:36:36.712Z,94.10
2019-02-19T13:37:40.891Z,94.30
2019-02-19T13:38:45.054Z,94.90
2019-02-19T13:39:49.319Z,94.80
2019-02-19T13:40:53.513Z,95.00
2019-02-19T13:41:57.636Z,95.50
2019-02-19T13:43:01.888Z,94.50
2019-02-19T13:44:06.179Z,93.70
2019-02-19T13:45:11.632Z,93.30
2019-02-19T13:46:15.955Z,93.00
2019-02-19T13:47:20.295Z,93.80
2019-02-19T13:48:24.419Z,93.30
2019-02-19T13:49:28.594Z,93.90